createdAt,value
2022-12-04T00:00:33.801Z,98456.13
2022-12-04T00:03:00.681Z,98454.31
2022-12-04T00:05:27.563Z,98478.97
2022-12-04T00:08:09.488Z,98469.88
2022-12-04T00:10:42.823Z,98457.88
2022-12-04T00:13:09.654Z,98466.97
2022-12-04T00:15:41.409Z,98453.56
2022-12-04T00:18:08.147Z,98465.03
2022-12-04T00:20:35.839Z,98477.09
2022-12-04T00:23:02.859Z,98463.16
2022-12-04T00:25:30.779Z,98445.75
2022-12-04T00:27:57.503Z,98449.53
2022-12-04T00:30:24.404Z,98454.03
2022-12-04T00:32:51.558Z,98450.78
2022-12-04T00:35:18.407Z,98440.38
2022-12-04T00:37:45.245Z,98440.69
2022-12-04T00:40:12.501Z,98442.81
2022-12-04T00:42:39.263Z,98441.22
2022-12-04T00:45:06.697Z,98445.00
2022-12-04T00:47:33.395Z,98451.41
2022-12-04T00:50:00.186Z,98453.03
2022-12-04T00:52:28.293Z,98447.34
2022-12-04T00:54:55.076Z,98450.03
2022-12-04T00:57:21.807Z,98446.06
2022-12-04T00:59:48.621Z,98445.22
2022-12-04T01:02:15.611Z,98442.31
2022-12-04T01:04:42.349Z,98452.75
2022-12-04T01:07:09.256Z,98449.56
2022-12-04T01:09:36.039Z,98444.75
2022-12-04T01:12:02.940Z,98443.97
2022-12-04T01:14:29.850Z,98440.72
2022-12-04T01:16:56.829Z,98449.84
2022-12-04T01:19:23.842Z,98448.25
2022-12-04T01:21:50.610Z,98447.69
2022-12-04T01:24:17.514Z,98438.56
2022-12-04T01:26:44.343Z,98446.09
2022-12-04T01:29:11.229Z,98446.88
2022-12-04T01:31:38.282Z,98438.28
2022-12-04T01:34:05.177Z,98439.63
2022-12-04T01:36:32.097Z,98447.16
2022-12-04T01:38:58.973Z,98449.03
2022-12-04T01:41:28.916Z,98446.69
2022-12-04T01:44:17.250Z,98450.38
2022-12-04T01:46:56.512Z,98447.13
2022-12-04T01:49:38.548Z,98443.63
2022-12-04T01:52:11.602Z,98451.41
2022-12-04T01:54:43.368Z,98445.53
2022-12-04T01:57:17.624Z,98437.22
2022-12-04T01:59:59.366Z,98445.81
2022-12-04T02:02:47.622Z,98442.91
2022-12-04T02:05:17.183Z,98443.69
2022-12-04T02:07:46.730Z,98440.97
2022-12-04T02:10:14.367Z,98439.88
2022-12-04T02:12:48.128Z,98442.59
2022-12-04T02:15:26.705Z,98452.50
2022-12-04T02:18:11.462Z,98453.31
2022-12-04T02:21:09.238Z,98457.88
2022-12-04T02:23:54.708Z,98450.38
2022-12-04T02:26:38.007Z,98447.16
2022-12-04T02:29:10.485Z,98427.06
2022-12-04T02:31:44.174Z,98430.25
2022-12-04T02:34:23.552Z,98426.78
2022-12-04T02:36:57.187Z,98425.41
2022-12-04T02:39:41.547Z,98413.91
2022-12-04T02:42:16.725Z,98429.16
2022-12-04T02:44:57.395Z,98424.63
2022-12-04T02:47:25.961Z,98419.22
2022-12-04T02:49:58.861Z,98420.88
2022-12-04T02:52:36.527Z,98440.19
2022-12-04T02:55:09.257Z,98429.97
2022-12-04T02:57:40.996Z,98425.13
2022-12-04T03:00:09.370Z,98423.00
2022-12-04T03:02:51.662Z,98421.94
2022-12-04T03:05:23.356Z,98417.69
2022-12-04T03:07:58.797Z,98420.09
2022-12-04T03:10:31.765Z,98416.63
2022-12-04T03:13:35.236Z,98423.03
2022-12-04T03:16:08.656Z,98407.72
2022-12-04T03:19:14.237Z,98406.97
2022-12-04T03:21:48.089Z,98406.47
2022-12-04T03:24:24.654Z,98400.56
2022-12-04T03:27:00.737Z,98399.50
2022-12-04T03:29:49.945Z,98400.56
2022-12-04T03:32:26.568Z,98391.47
2022-12-04T03:35:16.532Z,98392.25
2022-12-04T03:37:56.242Z,98390.88
2022-12-04T03:40:40.002Z,98394.34
2022-12-04T03:43:32.075Z,98386.31
2022-12-04T03:46:04.627Z,98384.47
2022-12-04T03:48:45.014Z,98387.69
2022-12-04T03:51:25.979Z,98383.13
2022-12-04T03:54:08.188Z,98385.00
2022-12-04T03:56:58.471Z,98379.66
2022-12-04T04:00:02.458Z,98387.13
2022-12-04T04:02:37.991Z,98389.28
2022-12-04T04:05:08.727Z,98386.63
2022-12-04T04:08:17.852Z,98386.03
2022-12-04T04:10:45.586Z,98386.84
2022-12-04T04:13:35.840Z,98396.50
2022-12-04T04:16:26.384Z,98398.44
2022-12-04T04:19:15.048Z,98405.09
2022-12-04T04:22:02.934Z,98406.16
2022-12-04T04:24:43.380Z,98399.50
2022-12-04T04:27:10.859Z,98397.88
2022-12-04T04:29:39.063Z,98399.69
2022-12-04T04:32:28.220Z,98398.91
2022-12-04T04:35:32.749Z,98403.25
2022-12-04T04:38:24.660Z,98404.34
2022-12-04T04:40:59.679Z,98413.44
2022-12-04T04:43:33.726Z,98417.69
2022-12-04T04:46:06.860Z,98418.75
2022-12-04T04:48:47.336Z,98415.00
2022-12-04T04:51:14.813Z,98408.31
2022-12-04T04:53:49.773Z,98406.19
2022-12-04T04:56:17.825Z,98405.94
2022-12-04T04:58:45.248Z,98397.91
2022-12-04T05:01:19.158Z,98405.41
2022-12-04T05:03:46.497Z,98406.47
2022-12-04T05:06:14.017Z,98407.56
2022-12-04T05:08:41.059Z,98402.75
2022-12-04T05:11:13.369Z,98394.44
2022-12-04T05:13:40.742Z,98397.41
2022-12-04T05:16:11.257Z,98410.25
2022-12-04T05:18:38.400Z,98402.19
2022-12-04T05:21:07.768Z,98407.00
2022-12-04T05:23:34.955Z,98404.56
2022-12-04T05:26:03.300Z,98411.56
2022-12-04T05:28:30.222Z,98404.06
2022-12-04T05:30:58.986Z,98417.75
2022-12-04T05:33:25.808Z,98406.22
2022-12-04T05:35:58.749Z,98404.03
2022-12-04T05:38:25.828Z,98405.91
2022-12-04T05:40:52.772Z,98408.28
2022-12-04T05:43:19.826Z,98408.84
2022-12-04T05:45:46.572Z,98408.06
2022-12-04T05:48:13.289Z,98417.72
2022-12-04T05:50:39.984Z,98408.88
2022-12-04T05:53:06.908Z,98405.97
2022-12-04T05:55:33.775Z,98411.09
2022-12-04T05:58:00.984Z,98411.09
2022-12-04T06:00:27.814Z,98405.47
2022-12-04T06:02:54.667Z,98408.91
2022-12-04T06:05:21.440Z,98407.84
2022-12-04T06:07:48.260Z,98405.72
2022-12-04T06:10:15.052Z,98397.44
2022-12-04T06:12:41.836Z,98398.75
2022-12-04T06:15:08.857Z,98414.56
2022-12-04T06:17:35.600Z,98406.50
2022-12-04T06:20:06.549Z,98404.88
2022-12-04T06:22:36.429Z,98406.50
2022-12-04T06:25:03.561Z,98405.69
2022-12-04T06:27:30.261Z,98415.06
2022-12-04T06:29:57.719Z,98416.34
2022-12-04T06:32:24.721Z,98417.50
2022-12-04T06:34:53.122Z,98412.13
2022-12-04T06:37:22.123Z,98416.94
2022-12-04T06:39:49.015Z,98410.50
2022-12-04T06:42:15.959Z,98416.19
2022-12-04T06:44:42.668Z,98408.09
2022-12-04T06:47:09.566Z,98404.38
2022-12-04T06:49:36.473Z,98404.88
2022-12-04T06:52:03.874Z,98408.06
2022-12-04T06:54:30.766Z,98405.13
2022-12-04T06:56:57.553Z,98407.84
2022-12-04T06:59:24.538Z,98412.66
2022-12-04T07:01:51.328Z,98415.06
2022-12-04T07:04:18.095Z,98414.78
2022-12-04T07:06:44.967Z,98418.56
2022-12-04T07:09:15.378Z,98410.31
2022-12-04T07:11:43.365Z,98413.00
2022-12-04T07:14:11.467Z,98411.94
2022-12-04T07:16:41.407Z,98417.56
2022-12-04T07:19:11.017Z,98414.88
2022-12-04T07:21:37.838Z,98417.31
2022-12-04T07:24:04.671Z,98413.25
2022-12-04T07:26:31.628Z,98413.78
2022-12-04T07:28:59.310Z,98418.34
2022-12-04T07:31:27.738Z,98421.56
2022-12-04T07:33:55.016Z,98414.31
2022-12-04T07:36:23.624Z,98424.75
2022-12-04T07:38:51.399Z,98411.38
2022-12-04T07:41:19.117Z,98413.53
2022-12-04T07:43:46.005Z,98412.72
2022-12-04T07:46:18.730Z,98401.75
2022-12-04T07:48:45.994Z,98409.28
2022-12-04T07:51:15.680Z,98416.25
2022-12-04T07:53:43.323Z,98418.63
2022-12-04T07:56:11.526Z,98416.75
2022-12-04T07:58:38.509Z,98417.31
2022-12-04T08:01:11.028Z,98420.50
2022-12-04T08:03:43.494Z,98421.56
2022-12-04T08:06:13.811Z,98421.06
2022-12-04T08:08:40.598Z,98428.81
2022-12-04T08:11:10.544Z,98430.97
2022-12-04T08:13:37.569Z,98426.44
2022-12-04T08:16:06.509Z,98427.75
2022-12-04T08:18:33.220Z,98426.97
2022-12-04T08:21:10.992Z,98417.03
2022-12-04T08:23:39.602Z,98417.84
2022-12-04T08:26:06.934Z,98414.09
2022-12-04T08:28:35.100Z,98424.78
2022-12-04T08:31:11.529Z,98420.50
2022-12-04T08:33:39.043Z,98424.53
2022-12-04T08:36:07.412Z,98427.50
2022-12-04T08:38:34.631Z,98424.03
2022-12-04T08:41:04.574Z,98424.88
2022-12-04T08:43:31.788Z,98426.50
2022-12-04T08:46:04.347Z,98425.69
2022-12-04T08:48:32.081Z,98426.19
2022-12-04T08:50:59.432Z,98423.75
2022-12-04T08:53:26.818Z,98428.06
2022-12-04T08:55:53.578Z,98441.44
2022-12-04T08:58:20.540Z,98447.06
2022-12-04T09:00:47.691Z,98451.34
2022-12-04T09:03:17.602Z,98453.75
2022-12-04T09:05:48.360Z,98455.34
2022-12-04T09:08:16.358Z,98458.03
2022-12-04T09:10:43.952Z,98448.63
2022-12-04T09:13:10.736Z,98449.50
2022-12-04T09:15:40.901Z,98449.78
2022-12-04T09:18:08.870Z,98457.31
2022-12-04T09:20:35.939Z,98457.84
2022-12-04T09:23:05.176Z,98453.00
2022-12-04T09:25:36.506Z,98450.06
2022-12-04T09:28:04.096Z,98454.09
2022-12-04T09:30:30.917Z,98445.25
2022-12-04T09:32:57.697Z,98447.97
2022-12-04T09:35:24.626Z,98446.09
2022-12-04T09:37:51.643Z,98447.19
2022-12-04T09:40:37.286Z,98447.69
2022-12-04T09:43:16.704Z,98447.41
2022-12-04T09:45:51.322Z,98443.16
2022-12-04T09:48:21.846Z,98420.63
2022-12-04T09:50:50.272Z,98430.78
2022-12-04T09:53:22.660Z,98409.34
2022-12-04T09:55:58.587Z,98416.88
2022-12-04T09:58:32.442Z,98414.22
2022-12-04T10:01:03.072Z,98408.03
2022-12-04T10:03:30.979Z,98402.69
2022-12-04T10:06:08.645Z,98391.97
2022-12-04T10:08:38.632Z,98392.47
2022-12-04T10:11:32.891Z,98393.28
2022-12-04T10:14:33.771Z,98388.72
2022-12-04T10:17:32.222Z,98377.22
2022-12-04T10:20:28.846Z,98387.13
2022-12-04T10:23:19.559Z,98379.63
2022-12-04T10:25:47.144Z,98370.78
2022-12-04T10:28:16.725Z,98370.81
2022-12-04T10:30:45.340Z,98381.25
2022-12-04T10:33:35.429Z,98372.69
2022-12-04T10:36:02.314Z,98367.09
2022-12-04T10:38:44.350Z,98361.41
2022-12-04T10:41:24.646Z,98358.25
2022-12-04T10:43:51.465Z,98362.78
2022-12-04T10:46:30.540Z,98353.69
2022-12-04T10:49:01.530Z,98365.22
2022-12-04T10:51:31.238Z,98358.25
2022-12-04T10:53:58.560Z,98365.50
2022-12-04T10:56:26.233Z,98364.44
2022-12-04T10:59:01.498Z,98367.41
2022-12-04T11:01:33.612Z,98373.81
2022-12-04T11:04:09.201Z,98377.28
2022-12-04T11:06:36.138Z,98374.59
2022-12-04T11:09:04.037Z,98372.44
2022-12-04T11:11:34.563Z,98364.94
2022-12-04T11:14:19.415Z,98378.31
2022-12-04T11:16:49.895Z,98385.31
2022-12-04T11:19:28.165Z,98389.06
2022-12-04T11:21:58.516Z,98396.03
2022-12-04T11:24:30.444Z,98396.03
2022-12-04T11:26:57.902Z,98385.31
2022-12-04T11:29:35.621Z,98387.72
2022-12-04T11:32:07.616Z,98381.31
2022-12-04T11:34:40.279Z,98373.75
2022-12-04T11:37:20.206Z,98378.06
2022-12-04T11:39:47.714Z,98377.78
2022-12-04T11:42:23.873Z,98379.09
2022-12-04T11:44:58.035Z,98393.03
2022-12-04T11:47:27.675Z,98390.91
2022-12-04T11:50:11.357Z,98383.94
2022-12-04T11:52:59.150Z,98379.91
2022-12-04T11:55:35.506Z,98376.41
2022-12-04T11:58:20.410Z,98376.41
2022-12-04T12:01:16.505Z,98375.91
2022-12-04T12:04:13.608Z,98365.72
2022-12-04T12:07:08.378Z,98359.28
2022-12-04T12:09:46.220Z,98349.13
2022-12-04T12:12:53.660Z,98345.38
2022-12-04T12:15:58.705Z,98342.72
2022-12-04T12:18:49.303Z,98346.19
2022-12-04T12:21:24.121Z,98353.97
2022-12-04T12:24:07.447Z,98346.19
2022-12-04T12:26:55.979Z,98354.25
2022-12-04T12:29:55.312Z,98362.03
2022-12-04T12:32:52.471Z,98362.81
2022-12-04T12:35:41.495Z,98358.53
2022-12-04T12:38:22.086Z,98346.72
2022-12-04T12:41:13.502Z,98348.03
2022-12-04T12:43:43.545Z,98343.47
2022-12-04T12:46:34.686Z,98337.59
2022-12-04T12:49:10.547Z,98335.72
2022-12-04T12:51:47.911Z,98342.41
2022-12-04T12:54:32.999Z,98334.59
2022-12-04T12:57:24.384Z,98334.91
2022-12-04T12:59:56.372Z,98342.16
2022-12-04T13:02:27.242Z,98329.56
2022-12-04T13:04:58.952Z,98326.88
2022-12-04T13:07:44.595Z,98313.22
2022-12-04T13:10:28.545Z,98315.63
2022-12-04T13:13:00.527Z,98318.06
2022-12-04T13:15:53.328Z,98326.34
2022-12-04T13:18:30.818Z,98331.47
2022-12-04T13:21:03.141Z,98320.47
2022-12-04T13:24:01.062Z,98322.09
2022-12-04T13:26:51.242Z,98322.63
2022-12-04T13:29:39.749Z,98322.91
2022-12-04T13:32:29.136Z,98322.34
2022-12-04T13:35:24.282Z,98320.22
2022-12-04T13:38:00.191Z,98313.78
2022-12-04T13:40:27.053Z,98317.53
2022-12-04T13:43:25.044Z,98325.28
2022-12-04T13:45:55.625Z,98334.94
2022-12-04T13:48:28.661Z,98341.66
2022-12-04T13:51:13.195Z,98347.28
2022-12-04T13:53:42.575Z,98348.91
2022-12-04T13:56:25.870Z,98345.44
2022-12-04T13:59:02.302Z,98343.00
2022-12-04T14:01:38.686Z,98335.22
2022-12-04T14:04:07.038Z,98332.00
2022-12-04T14:06:43.396Z,98330.41
2022-12-04T14:09:24.769Z,98332.78
2022-12-04T14:11:57.782Z,98336.28
2022-12-04T14:14:28.639Z,98331.19
2022-12-04T14:16:58.773Z,98330.94
2022-12-04T14:19:31.154Z,98340.31
2022-12-04T14:21:58.754Z,98345.41
2022-12-04T14:24:35.117Z,98345.41
2022-12-04T14:27:23.511Z,98340.28
2022-12-04T14:29:54.565Z,98332.78
2022-12-04T14:32:34.331Z,98334.41
2022-12-04T14:35:01.980Z,98327.19
2022-12-04T14:37:35.921Z,98324.75
2022-12-04T14:40:06.889Z,98319.66
2022-12-04T14:42:37.296Z,98327.41
2022-12-04T14:45:17.706Z,98325.28
2022-12-04T14:48:03.273Z,98325.59
2022-12-04T14:50:42.536Z,98319.69
2022-12-04T14:53:09.211Z,98307.59
2022-12-04T14:55:51.081Z,98305.44
2022-12-04T14:58:30.939Z,98302.25
2022-12-04T15:00:59.792Z,98301.72
2022-12-04T15:03:29.930Z,98302.00
2022-12-04T15:06:06.591Z,98304.38
2022-12-04T15:08:34.253Z,98294.72
2022-12-04T15:11:19.576Z,98291.78
2022-12-04T15:13:46.306Z,98291.81
2022-12-04T15:16:19.048Z,98274.88
2022-12-04T15:19:00.124Z,98289.66
2022-12-04T15:21:37.592Z,98300.38
2022-12-04T15:24:19.450Z,98316.19
2022-12-04T15:26:48.521Z,98324.75
2022-12-04T15:29:22.085Z,98342.47
2022-12-04T15:31:56.880Z,98356.66
2022-12-04T15:34:33.711Z,98364.41
2022-12-04T15:37:07.663Z,98363.88
2022-12-04T15:39:36.485Z,98362.81
2022-12-04T15:42:25.595Z,98371.91
2022-12-04T15:45:02.805Z,98370.31
2022-12-04T15:47:53.848Z,98363.59
2022-12-04T15:50:29.071Z,98356.06
2022-12-04T15:53:21.456Z,98361.69
2022-12-04T15:55:54.861Z,98368.69
2022-12-04T15:58:27.507Z,98356.13
2022-12-04T16:01:00.603Z,98357.72
2022-12-04T16:03:30.778Z,98348.84
2022-12-04T16:06:05.540Z,98346.19
2022-12-04T16:08:34.957Z,98343.25
2022-12-04T16:11:22.764Z,98337.38
2022-12-04T16:14:10.937Z,98339.75
2022-12-04T16:16:41.992Z,98347.25
2022-12-04T16:19:14.827Z,98340.28
2022-12-04T16:21:41.535Z,98347.78
2022-12-04T16:24:11.837Z,98339.72
2022-12-04T16:26:38.566Z,98327.72
2022-12-04T16:29:05.391Z,98317.22
2022-12-04T16:31:32.247Z,98322.34
2022-12-04T16:33:59.013Z,98323.66
2022-12-04T16:36:26.015Z,98329.56
2022-12-04T16:38:52.801Z,98318.31
2022-12-04T16:41:21.129Z,98319.91
2022-12-04T16:43:58.686Z,98317.22
2022-12-04T16:46:27.799Z,98310.78
2022-12-04T16:48:54.868Z,98309.72
2022-12-04T16:51:24.023Z,98313.47
2022-12-04T16:53:51.926Z,98307.34
2022-12-04T16:56:19.381Z,98306.81
2022-12-04T16:58:46.452Z,98304.38
2022-12-04T17:01:29.576Z,98306.19
2022-12-04T17:03:56.401Z,98316.13
2022-12-04T17:06:23.203Z,98320.44
2022-12-04T17:08:49.879Z,98322.34
2022-12-04T17:11:17.440Z,98323.94
2022-12-04T17:13:45.160Z,98319.06
2022-12-04T17:16:15.026Z,98323.91
2022-12-04T17:18:45.083Z,98330.31
2022-12-04T17:21:13.382Z,98329.00
2022-12-04T17:23:41.039Z,98315.28
2022-12-04T17:26:10.838Z,98322.56
2022-12-04T17:28:38.394Z,98321.50
2022-12-04T17:31:13.368Z,98322.28
2022-12-04T17:33:40.327Z,98321.50
2022-12-04T17:36:16.791Z,98327.41
2022-12-04T17:38:43.744Z,98326.03
2022-12-04T17:41:13.893Z,98333.50
2022-12-04T17:43:42.913Z,98330.56
2022-12-04T17:46:20.287Z,98340.75
2022-12-04T17:48:48.294Z,98345.59
2022-12-04T17:51:20.523Z,98348.25
2022-12-04T17:53:48.037Z,98353.34
2022-12-04T17:56:20.999Z,98355.25
2022-12-04T17:58:48.437Z,98361.69
2022-12-04T18:01:21.798Z,98359.53
2022-12-04T18:03:53.903Z,98362.22
2022-12-04T18:06:25.241Z,98359.03
2022-12-04T18:08:52.181Z,98367.06
2022-12-04T18:11:20.769Z,98360.09
2022-12-04T18:13:49.051Z,98359.53
2022-12-04T18:16:15.838Z,98364.88
2022-12-04T18:18:42.752Z,98359.53
2022-12-04T18:21:11.046Z,98361.13
2022-12-04T18:23:44.383Z,98368.09
2022-12-04T18:26:14.255Z,98368.09
2022-12-04T18:28:41.841Z,98367.59
2022-12-04T18:31:09.127Z,98367.56
2022-12-04T18:33:37.734Z,98363.53
2022-12-04T18:36:05.643Z,98354.97
2022-12-04T18:38:32.603Z,98356.31
2022-12-04T18:41:04.250Z,98363.03
2022-12-04T18:43:35.159Z,98361.16
2022-12-04T18:46:07.865Z,98362.22
2022-12-04T18:48:35.885Z,98359.53
2022-12-04T18:51:14.540Z,98372.94
2022-12-04T18:53:41.480Z,98368.09
2022-12-04T18:56:08.385Z,98370.75
2022-12-04T18:58:35.241Z,98374.00
2022-12-04T19:01:14.041Z,98373.47
2022-12-04T19:03:41.589Z,98373.44
2022-12-04T19:06:08.830Z,98380.94
2022-12-04T19:08:39.993Z,98374.00
2022-12-04T19:11:13.293Z,98376.16
2022-12-04T19:13:40.825Z,98378.00
2022-12-04T19:16:12.983Z,98389.00
2022-12-04T19:18:40.130Z,98381.50
2022-12-04T19:21:08.100Z,98388.97
2022-12-04T19:23:35.105Z,98389.78
2022-12-04T19:26:03.245Z,98389.00
2022-12-04T19:28:30.322Z,98392.22
2022-12-04T19:30:57.050Z,98403.47
2022-12-04T19:33:25.111Z,98397.28
2022-12-04T19:36:04.318Z,98406.69
2022-12-04T19:38:32.722Z,98404.56
2022-12-04T19:41:13.717Z,98415.84
2022-12-04T19:43:42.844Z,98417.97
2022-12-04T19:46:12.416Z,98424.41
2022-12-04T19:48:39.914Z,98421.97
2022-12-04T19:51:09.889Z,98428.69
2022-12-04T19:53:40.934Z,98428.94
2022-12-04T19:56:20.210Z,98439.41
2022-12-04T19:58:47.751Z,98438.34
2022-12-04T20:01:16.853Z,98437.28
2022-12-04T20:03:44.385Z,98441.56
2022-12-04T20:06:15.214Z,98435.16
2022-12-04T20:08:42.310Z,98437.84
2022-12-04T20:11:17.944Z,98429.81
2022-12-04T20:13:46.303Z,98427.16
2022-12-04T20:16:15.800Z,98423.91
2022-12-04T20:18:43.638Z,98427.13
2022-12-04T20:21:11.900Z,98431.94
2022-12-04T20:23:43.737Z,98414.53
2022-12-04T20:26:12.652Z,98412.13
2022-12-04T20:28:40.475Z,98423.91
2022-12-04T20:31:26.625Z,98422.59
2022-12-04T20:33:54.882Z,98424.47
2022-12-04T20:36:23.719Z,98428.75
2022-12-04T20:38:53.480Z,98432.00
2022-12-04T20:41:20.247Z,98430.91
2022-12-04T20:43:47.869Z,98429.84
2022-12-04T20:46:23.993Z,98440.06
2022-12-04T20:48:53.196Z,98427.19
2022-12-04T20:51:26.152Z,98432.28
2022-12-04T20:53:54.637Z,98435.22
2022-12-04T20:56:25.805Z,98428.25
2022-12-04T20:58:54.285Z,98425.56
2022-12-04T21:01:21.061Z,98423.41
2022-12-04T21:03:47.841Z,98425.59
2022-12-04T21:06:28.435Z,98424.25
2022-12-04T21:09:02.061Z,98419.16
2022-12-04T21:11:37.134Z,98422.16
2022-12-04T21:14:25.406Z,98433.94
2022-12-04T21:16:52.441Z,98430.44
2022-12-04T21:19:21.265Z,98436.88
2022-12-04T21:21:48.774Z,98430.72
2022-12-04T21:24:17.549Z,98427.75
2022-12-04T21:26:44.296Z,98426.94
2022-12-04T21:29:11.740Z,98430.41
2022-12-04T21:31:40.003Z,98438.19
2022-12-04T21:34:10.107Z,98435.75
2022-12-04T21:36:36.941Z,98440.88
2022-12-04T21:39:04.580Z,98438.44
2022-12-04T21:41:50.105Z,98442.47
2022-12-04T21:44:18.871Z,98441.41
2022-12-04T21:46:46.641Z,98442.47
2022-12-04T21:49:14.780Z,98447.00
2022-12-04T21:51:57.378Z,98440.31
2022-12-04T21:54:26.082Z,98445.41
2022-12-04T21:56:52.905Z,98451.81
2022-12-04T21:59:19.772Z,98463.38
2022-12-04T22:01:46.567Z,98463.63
2022-12-04T22:04:13.325Z,98467.66
2022-12-04T22:06:40.209Z,98480.28
2022-12-04T22:09:09.809Z,98478.97
2022-12-04T22:11:37.231Z,98473.06
2022-12-04T22:14:04.507Z,98483.28
2022-12-04T22:16:33.708Z,98473.34
2022-12-04T22:19:02.528Z,98480.09
2022-12-04T22:21:29.497Z,98485.16
2022-12-04T22:24:00.103Z,98481.66
2022-12-04T22:26:28.694Z,98486.72
2022-12-04T22:28:55.649Z,98496.16
2022-12-04T22:31:25.010Z,98496.41
2022-12-04T22:33:53.861Z,98503.41
2022-12-04T22:36:23.403Z,98502.31
2022-12-04T22:39:08.811Z,98515.72
2022-12-04T22:41:36.456Z,98508.19
2022-12-04T22:44:03.759Z,98507.66
2022-12-04T22:46:30.549Z,98506.03
2022-12-04T22:48:58.509Z,98502.56
2022-12-04T22:51:25.304Z,98497.47
2022-12-04T22:53:54.613Z,98501.22
2022-12-04T22:56:24.575Z,98497.47
2022-12-04T22:58:52.115Z,98504.16
2022-12-04T23:01:29.453Z,98505.47
2022-12-04T23:03:56.665Z,98507.63
2022-12-04T23:06:25.932Z,98504.72
2022-12-04T23:08:58.597Z,98505.78
2022-12-04T23:11:26.777Z,98497.22
2022-12-04T23:13:55.973Z,98494.78
2022-12-04T23:16:24.084Z,98494.19
2022-12-04T23:18:51.056Z,98503.34
2022-12-04T23:21:19.559Z,98505.22
2022-12-04T23:23:47.520Z,98501.22
2022-12-04T23:26:18.095Z,98514.38
2022-12-04T23:28:44.852Z,98524.28
2022-12-04T23:31:12.409Z,98521.03
2022-12-04T23:33:40.113Z,98523.72
2022-12-04T23:36:08.767Z,98523.69
2022-12-04T23:38:37.458Z,98530.41
2022-12-04T23:41:12.499Z,98543.00
2022-12-04T23:43:40.220Z,98541.44
2022-12-04T23:46:11.178Z,98558.59
2022-12-04T23:48:39.709Z,98551.09
2022-12-04T23:51:07.333Z,98554.34
2022-12-04T23:53:34.372Z,98555.41
2022-12-04T23:56:09.713Z,98554.91
2022-12-04T23:58:37.452Z,98549.81
